Time;durP1;ratioP1;P1;durP2;ratioP2;P2;SDS_P1;SDS_P2;PMS_P1;PMS_P2;Temp;Humidity;BMP_temperature;BMP_pressure;BME280_temperature;BME280_humidity;BME280_pressure;Samples;Min_cycle;Max_cycle;Signal;HPM_P1;HPM_P2
2023/02/27 00:01:59;;;;;;;6.53;6.43;;;3.20;99.90;;;;;;4198841;28;20381;-84
2023/02/27 00:04:19;;;;;;;6.55;6.45;;;3.20;99.90;;;;;;4193604;28;20042;-84
2023/02/27 00:06:39;;;;;;;5.68;5.68;;;3.30;99.90;;;;;;4186982;28;20079;-84
2023/02/27 00:08:59;;;;;;;6.07;5.97;;;3.30;99.90;;;;;;4176202;28;20053;-83
2023/02/27 00:11:19;;;;;;;5.78;5.70;;;3.40;99.90;;;;;;4178027;28;20076;-84
2023/02/27 00:13:39;;;;;;;6.57;6.57;;;3.40;99.90;;;;;;4194920;28;20370;-84
2023/02/27 00:15:59;;;;;;;7.53;7.35;;;3.40;99.90;;;;;;4189809;28;20048;-84
2023/02/27 00:18:19;;;;;;;8.57;8.40;;;3.40;99.90;;;;;;4191367;28;20095;-84
2023/02/27 00:20:39;;;;;;;7.50;7.40;;;3.40;99.90;;;;;;4198008;28;20090;-84
2023/02/27 00:22:59;;;;;;;8.27;8.05;;;3.30;99.90;;;;;;4184032;28;20148;-84
2023/02/27 00:25:19;;;;;;;6.50;6.40;;;3.30;99.90;;;;;;4178738;28;20076;-84
2023/02/27 00:27:39;;;;;;;6.07;6.07;;;3.40;99.90;;;;;;4181335;28;20130;-84
2023/02/27 00:29:59;;;;;;;5.50;5.50;;;3.20;99.90;;;;;;4191963;28;20055;-84
2023/02/27 00:32:18;;;;;;;5.90;5.90;;;3.20;99.90;;;;;;4182349;28;20052;-84
2023/02/27 00:34:39;;;;;;;5.18;5.18;;;3.30;99.90;;;;;;4181795;28;20403;-83
2023/02/27 00:36:59;;;;;;;4.75;4.75;;;3.30;99.90;;;;;;4196049;28;20043;-84
2023/02/27 00:39:19;;;;;;;4.85;4.85;;;3.40;99.90;;;;;;4191331;28;20105;-84
2023/02/27 00:41:39;;;;;;;5.60;5.60;;;3.50;99.90;;;;;;4184426;28;20108;-84
2023/02/27 00:43:58;;;;;;;5.60;5.53;;;3.50;99.90;;;;;;4181573;28;20076;-84
2023/02/27 00:46:18;;;;;;;14.13;13.38;;;3.40;99.90;;;;;;4196694;28;20075;-84
2023/02/27 00:48:38;;;;;;;4.75;4.75;;;3.40;99.90;;;;;;4190415;28;20055;-84
2023/02/27 00:50:57;;;;;;;5.88;5.88;;;3.30;99.90;;;;;;4184163;28;20043;-84
2023/02/27 00:53:17;;;;;;;6.15;6.10;;;3.30;99.90;;;;;;4193926;28;20070;-84
2023/02/27 00:55:37;;;;;;;5.72;5.72;;;3.30;99.90;;;;;;4196175;28;20069;-83
2023/02/27 00:57:57;;;;;;;7.10;7.10;;;3.40;99.90;;;;;;4196738;28;20326;-84
2023/02/27 01:00:17;;;;;;;6.20;6.20;;;3.40;99.90;;;;;;4181994;28;20152;-84
2023/02/27 01:02:37;;;;;;;7.07;7.07;;;3.40;99.90;;;;;;4188072;28;20143;-84
2023/02/27 01:04:57;;;;;;;6.43;6.43;;;3.40;99.90;;;;;;4195754;28;20048;-84
2023/02/27 01:07:17;;;;;;;6.28;6.28;;;3.40;99.90;;;;;;4189579;28;20107;-83
2023/02/27 01:09:37;;;;;;;5.32;5.32;;;3.30;99.90;;;;;;4189917;28;20112;-84
2023/02/27 01:11:58;;;;;;;6.05;6.05;;;3.30;99.90;;;;;;4195304;28;20089;-84
2023/02/27 01:14:18;;;;;;;5.88;5.88;;;3.20;99.90;;;;;;4196821;28;20064;-84
2023/02/27 01:16:38;;;;;;;4.63;4.63;;;3.30;99.90;;;;;;4183713;28;20121;-84
2023/02/27 01:18:58;;;;;;;5.35;5.35;;;3.20;99.90;;;;;;4182429;28;20095;-84
2023/02/27 01:21:19;;;;;;;5.32;5.32;;;3.20;99.90;;;;;;4198890;28;20075;-84
2023/02/27 01:23:39;;;;;;;5.75;5.75;;;3.30;99.90;;;;;;4187924;28;20060;-84
2023/02/27 01:25:59;;;;;;;4.95;4.95;;;3.30;99.90;;;;;;4182385;28;20087;-84
2023/02/27 01:28:18;;;;;;;5.53;5.53;;;3.20;99.90;;;;;;4186462;28;20430;-84
2023/02/27 01:30:39;;;;;;;5.93;5.93;;;3.20;99.90;;;;;;4189720;28;20047;-84
2023/02/27 01:32:59;;;;;;;5.18;5.18;;;3.30;99.90;;;;;;4188605;28;20363;-84
2023/02/27 01:35:19;;;;;;;5.68;5.68;;;3.30;99.90;;;;;;4185873;28;20056;-84
2023/02/27 01:37:39;;;;;;;5.72;5.72;;;3.20;99.90;;;;;;4195778;28;20078;-84
2023/02/27 01:39:59;;;;;;;5.50;5.50;;;3.20;99.90;;;;;;4194200;28;20086;-84
2023/02/27 01:42:23;;;;;;;5.55;5.55;;;3.20;99.90;;;;;;4188915;28;20090;-84
2023/02/27 01:45:19;;;;;;;4.68;4.68;;;3.20;99.90;;;;;;4193710;28;20256;-84
2023/02/27 01:47:42;;;;;;;6.05;6.00;;;3.20;99.90;;;;;;4193682;28;20074;-83
2023/02/27 01:50:02;;;;;;;;;;;3.30;99.90;;;;;;4199925;28;20417;-84
2023/02/27 01:52:22;;;;;;;4.25;4.25;;;3.50;99.90;;;;;;4191517;28;19932;-84
2023/02/27 01:54:42;;;;;;;4.82;4.82;;;3.60;99.90;;;;;;4181343;28;20103;-84
2023/02/27 01:57:05;;;;;;;5.03;5.03;;;3.70;99.90;;;;;;4195791;28;20048;-84
2023/02/27 01:59:25;;;;;;;4.28;4.28;;;3.70;99.90;;;;;;4190391;28;20091;-84
2023/02/27 02:01:45;;;;;;;3.88;3.88;;;3.60;99.90;;;;;;4186422;28;20289;-84
2023/02/27 02:04:18;;;;;;;4.95;4.95;;;3.40;99.90;;;;;;4196018;28;20051;-84
2023/02/27 02:06:42;;;;;;;3.72;3.72;;;3.40;99.90;;;;;;4193416;28;20063;-84
2023/02/27 02:09:04;;;;;;;4.97;4.97;;;3.30;99.90;;;;;;4184658;28;20068;-84
2023/02/27 02:11:25;;;;;;;5.13;5.13;;;3.30;99.90;;;;;;4185468;28;20382;-84
2023/02/27 02:13:48;;;;;;;4.03;4.03;;;3.30;99.90;;;;;;4185057;28;20108;-84
2023/02/27 02:16:26;;;;;;;;;;;3.50;99.90;;;;;;4189714;28;20047;-84
2023/02/27 02:19:21;;;;;;;5.57;5.57;;;3.50;99.90;;;;;;4187959;28;19924;-84
2023/02/27 02:21:44;;;;;;;5.05;5.05;;;3.60;99.90;;;;;;4158080;28;20082;-84
2023/02/27 02:24:25;;;;;;;5.53;5.53;;;3.60;99.90;;;;;;4191365;28;20051;-84
2023/02/27 02:27:01;;;;;;;4.78;4.78;;;3.40;99.90;;;;;;4185598;28;20064;-84
2023/02/27 02:29:52;;;;;;;4.97;4.97;;;3.40;99.90;;;;;;4182341;28;20247;-84
2023/02/27 02:32:46;;;;;;;4.05;4.05;;;3.30;99.90;;;;;;4197365;28;20078;-84
2023/02/27 02:35:12;;;;;;;5.25;5.25;;;3.30;99.90;;;;;;4190450;28;20087;-84
2023/02/27 02:38:02;;;;;;;5.80;5.80;;;3.30;99.90;;;;;;4191567;28;20610;-84
2023/02/27 02:40:28;;;;;;;4.95;4.95;;;3.30;99.90;;;;;;4189892;28;20083;-84
2023/02/27 02:43:09;;;;;;;4.70;4.70;;;3.40;99.90;;;;;;4192778;28;20044;-84
2023/02/27 02:45:33;;;;;;;3.95;3.95;;;3.40;99.90;;;;;;4180895;28;20052;-84
2023/02/27 02:48:02;;;;;;;4.40;4.40;;;3.30;99.90;;;;;;4190172;28;20044;-84
2023/02/27 02:50:36;;;;;;;3.72;3.72;;;3.30;99.90;;;;;;4191728;28;20105;-84
2023/02/27 02:52:59;;;;;;;5.13;5.13;;;3.30;99.90;;;;;;4183616;28;20044;-84
2023/02/27 02:55:40;;;;;;;4.57;4.57;;;3.30;99.90;;;;;;4188431;28;20076;-84
2023/02/27 02:58:07;;;;;;;4.20;4.20;;;3.30;99.90;;;;;;4190266;28;20256;-84
2023/02/27 03:00:33;;;;;;;4.57;4.57;;;3.30;99.90;;;;;;4185449;28;20259;-84
2023/02/27 03:03:19;;;;;;;4.38;4.38;;;3.50;99.90;;;;;;4190446;28;20056;-84
2023/02/27 03:06:01;;;;;;;5.07;5.07;;;3.50;99.90;;;;;;4186982;28;20048;-84
2023/02/27 03:08:27;;;;;;;4.80;4.80;;;3.50;99.90;;;;;;4195856;28;20354;-84
2023/02/27 03:11:04;;;;;;;6.57;6.47;;;3.40;99.90;;;;;;4192976;28;20043;-84
2023/02/27 03:13:50;;;;;;;3.95;3.95;;;3.40;99.90;;;;;;4196789;28;20082;-84
2023/02/27 03:16:33;;;;;;;4.78;4.78;;;3.40;99.90;;;;;;4192037;28;20056;-84
2023/02/27 03:19:06;;;;;;;5.07;5.07;;;3.40;99.90;;;;;;4200337;28;20081;-84
2023/02/27 03:21:59;;;;;;;5.13;5.13;;;3.40;99.90;;;;;;4185730;28;20398;-84
2023/02/27 03:24:31;;;;;;;5.95;5.95;;;3.40;99.90;;;;;;4193881;28;20123;-84
2023/02/27 03:26:55;;;;;;;4.85;4.85;;;3.40;99.90;;;;;;4197818;28;20047;-84
2023/02/27 03:29:22;;;;;;;4.50;4.50;;;3.40;99.90;;;;;;4184352;28;20379;-84
2023/02/27 03:31:52;;;;;;;4.15;4.15;;;3.30;99.90;;;;;;4187802;28;20055;-84
2023/02/27 03:34:29;;;;;;;5.50;5.50;;;3.30;99.90;;;;;;4194675;28;20050;-84
2023/02/27 03:36:59;;;;;;;5.95;5.95;;;3.30;99.90;;;;;;4197619;28;20067;-84
2023/02/27 03:39:26;;;;;;;5.90;5.90;;;3.20;99.90;;;;;;4185313;28;20109;-84
2023/02/27 03:42:09;;;;;;;5.07;5.07;;;3.30;99.90;;;;;;4193776;28;20351;-84
2023/02/27 03:44:54;;;;;;;5.15;5.15;;;3.30;99.90;;;;;;4195033;28;20044;-84
2023/02/27 03:47:14;;;;;;;4.95;4.95;;;3.30;99.90;;;;;;4189193;28;20169;-83
2023/02/27 03:49:34;;;;;;;5.45;5.45;;;3.30;99.90;;;;;;4193111;28;20043;-83
2023/02/27 03:51:54;;;;;;;4.47;4.47;;;3.40;99.90;;;;;;4193922;28;20078;-84
2023/02/27 03:54:19;;;;;;;5.60;5.60;;;3.40;99.90;;;;;;4193184;28;20052;-84
2023/02/27 03:57:01;;;;;;;4.55;4.55;;;3.40;99.90;;;;;;4189667;28;20064;-84
2023/02/27 03:59:23;;;;;;;4.75;4.75;;;3.30;99.90;;;;;;4188298;28;20074;-84
2023/02/27 04:01:43;;;;;;;4.80;4.80;;;3.30;99.90;;;;;;4198497;28;20051;-84
2023/02/27 04:04:09;;;;;;;5.60;5.60;;;3.30;99.90;;;;;;4199089;28;20060;-84
2023/02/27 04:09:35;;;;;;;5.38;5.38;;;3.20;99.90;;;;;;4190119;28;20052;-84
2023/02/27 04:12:16;;;;;;;4.70;4.70;;;3.10;99.90;;;;;;4203206;28;20067;-84
2023/02/27 04:14:55;;;;;;;5.72;5.72;;;3.10;99.90;;;;;;4180948;28;20247;-84
2023/02/27 04:17:22;;;;;;;4.63;4.63;;;3.10;99.90;;;;;;4192362;28;20064;-84
2023/02/27 04:19:50;;;;;;;5.35;5.35;;;3.10;99.90;;;;;;4196833;28;20047;-84
2023/02/27 04:22:22;;;;;;;5.90;5.90;;;3.00;99.90;;;;;;4186589;28;20112;-84
2023/02/27 04:24:54;;;;;;;5.50;5.50;;;2.90;99.90;;;;;;4186517;28;20255;-84
2023/02/27 04:27:26;;;;;;;5.40;5.40;;;2.90;99.90;;;;;;4197628;28;20035;-84
2023/02/27 04:29:56;;;;;;;3.85;3.85;;;2.90;99.90;;;;;;4200755;28;20060;-84
2023/02/27 04:32:25;;;;;;;4.93;4.93;;;2.90;99.90;;;;;;4189492;28;20043;-84
2023/02/27 04:34:52;;;;;;;5.38;5.38;;;2.80;99.90;;;;;;4189401;28;20055;-84
2023/02/27 04:37:21;;;;;;;4.03;4.03;;;2.80;99.90;;;;;;4195421;28;20087;-84
2023/02/27 04:39:50;;;;;;;5.57;5.57;;;2.80;99.90;;;;;;4193218;28;20290;-84
2023/02/27 04:42:20;;;;;;;5.18;5.18;;;2.80;99.90;;;;;;4193133;28;20047;-84
2023/02/27 04:44:41;;;;;;;5.30;5.30;;;2.80;99.90;;;;;;4196085;28;20111;-84
2023/02/27 04:47:04;;;;;;;4.22;4.22;;;2.80;99.90;;;;;;4175970;28;20087;-84
2023/02/27 04:49:36;;;;;;;4.40;4.40;;;2.70;99.90;;;;;;4196597;28;20047;-84
2023/02/27 04:52:01;;;;;;;5.68;5.68;;;2.70;99.90;;;;;;4195412;28;20424;-84
2023/02/27 04:54:38;;;;;;;6.13;6.13;;;2.60;99.90;;;;;;4192999;28;20382;-84
2023/02/27 04:57:03;;;;;;;6.30;6.20;;;2.70;99.90;;;;;;4178601;28;20055;-84
2023/02/27 04:59:27;;;;;;;5.00;5.00;;;2.60;99.90;;;;;;4197589;28;20052;-84
2023/02/27 05:01:54;;;;;;;5.35;5.35;;;2.60;99.90;;;;;;4191817;28;20048;-84
2023/02/27 05:04:19;;;;;;;5.20;5.20;;;2.60;99.90;;;;;;4191727;28;20063;-84
2023/02/27 05:06:42;;;;;;;6.90;6.80;;;2.50;99.90;;;;;;4184582;28;20056;-84
2023/02/27 05:09:23;;;;;;;7.00;6.90;;;2.50;99.90;;;;;;4184759;28;20233;-84
2023/02/27 05:11:55;;;;;;;6.38;6.38;;;2.50;99.90;;;;;;4193320;28;20040;-84
2023/02/27 05:14:23;;;;;;;6.82;6.72;;;2.60;99.90;;;;;;4196917;28;20101;-84
2023/02/27 05:16:50;;;;;;;5.80;5.80;;;2.60;99.90;;;;;;4192178;28;20078;-84
2023/02/27 05:19:10;;;;;;;5.65;5.55;;;2.60;99.90;;;;;;4201464;28;20063;-84
2023/02/27 05:21:47;;;;;;;6.40;6.30;;;2.60;99.90;;;;;;4183494;28;20450;-84
2023/02/27 05:24:16;;;;;;;5.45;5.45;;;2.60;99.90;;;;;;4181059;28;20558;-84
2023/02/27 05:26:36;;;;;;;4.78;4.78;;;2.60;99.90;;;;;;4195706;28;20047;-84
2023/02/27 05:29:06;;;;;;;5.35;5.35;;;2.60;99.90;;;;;;4186631;28;20082;-84
2023/02/27 05:31:34;;;;;;;5.47;5.40;;;2.60;99.90;;;;;;4177861;28;20049;-84
2023/02/27 05:34:10;;;;;;;5.65;5.60;;;2.60;99.90;;;;;;4192109;28;20040;-84
2023/02/27 05:36:36;;;;;;;6.15;6.15;;;2.60;99.90;;;;;;4185210;28;20260;-84
2023/02/27 05:39:04;;;;;;;6.00;5.97;;;2.60;99.90;;;;;;4187683;28;20043;-84
2023/02/27 05:41:30;;;;;;;7.00;6.90;;;2.50;99.90;;;;;;4189778;28;20265;-84
2023/02/27 05:43:57;;;;;;;6.55;6.55;;;2.50;99.90;;;;;;4196066;28;20051;-84
2023/02/27 05:46:25;;;;;;;5.95;5.95;;;2.60;99.90;;;;;;4193821;28;20067;-84
2023/02/27 05:49:12;;;;;;;5.80;5.80;;;2.50;99.90;;;;;;4185129;28;20039;-84
2023/02/27 05:51:35;;;;;;;5.60;5.60;;;2.60;99.90;;;;;;4186990;28;20056;-84
2023/02/27 05:54:11;;;;;;;5.93;5.93;;;2.50;99.90;;;;;;4190799;28;20048;-84
2023/02/27 05:56:33;;;;;;;6.15;6.15;;;2.60;99.90;;;;;;4193843;28;20055;-84
2023/02/27 05:59:17;;;;;;;6.10;6.10;;;2.60;99.90;;;;;;4177567;28;20048;-84
2023/02/27 06:01:38;;;;;;;5.88;5.85;;;2.50;99.90;;;;;;4191763;28;20112;-84
2023/02/27 06:03:58;;;;;;;6.60;6.60;;;2.60;99.90;;;;;;4190792;28;20039;-84
2023/02/27 06:06:19;;;;;;;6.53;6.53;;;2.60;99.90;;;;;;4182611;28;20052;-84
2023/02/27 06:08:39;;;;;;;6.60;6.60;;;2.60;99.90;;;;;;4179269;28;20044;-84
2023/02/27 06:10:59;;;;;;;6.25;6.25;;;2.60;99.90;;;;;;4188043;28;20126;-84
2023/02/27 06:13:18;;;;;;;6.75;6.75;;;2.60;99.90;;;;;;4177818;28;20048;-84
2023/02/27 06:15:38;;;;;;;6.15;6.15;;;2.60;99.90;;;;;;4180626;28;20334;-84
2023/02/27 06:17:57;;;;;;;5.22;5.22;;;2.60;99.90;;;;;;4178171;28;20113;-84
2023/02/27 06:20:18;;;;;;;6.05;6.05;;;2.60;99.90;;;;;;4197749;28;20043;-84
2023/02/27 06:22:38;;;;;;;5.75;5.75;;;2.60;99.90;;;;;;4187368;28;20056;-85
2023/02/27 06:24:58;;;;;;;6.05;6.05;;;2.60;99.90;;;;;;4187788;28;20047;-85
2023/02/27 06:27:19;;;;;;;7.00;7.00;;;2.60;99.90;;;;;;4182631;28;20056;-86
2023/02/27 06:29:40;;;;;;;5.60;5.60;;;2.60;99.90;;;;;;4193619;28;20155;-86
2023/02/27 06:32:00;;;;;;;6.40;6.40;;;2.60;99.90;;;;;;4191266;28;20056;-86
2023/02/27 06:34:20;;;;;;;5.00;5.00;;;2.60;99.90;;;;;;4191228;28;20082;-85
2023/02/27 06:36:40;;;;;;;6.15;6.05;;;2.70;99.90;;;;;;4191040;28;20048;-86
2023/02/27 06:39:00;;;;;;;5.90;5.90;;;2.60;99.90;;;;;;4181341;28;20056;-86
2023/02/27 06:41:20;;;;;;;6.45;6.45;;;2.70;99.90;;;;;;4189104;28;20047;-86
2023/02/27 06:43:40;;;;;;;6.40;6.30;;;2.70;99.90;;;;;;4188622;28;20053;-86
2023/02/27 06:46:01;;;;;;;6.43;6.43;;;2.70;99.90;;;;;;4181280;28;20057;-85
2023/02/27 06:48:21;;;;;;;6.25;6.25;;;2.70;99.90;;;;;;4198160;28;20353;-86
2023/02/27 06:50:41;;;;;;;5.53;5.53;;;2.70;99.90;;;;;;4182657;28;20047;-85
2023/02/27 06:53:01;;;;;;;5.95;5.85;;;2.70;99.90;;;;;;4190760;28;20079;-85
2023/02/27 06:55:21;;;;;;;6.22;6.13;;;2.70;99.90;;;;;;4193896;28;20047;-84
2023/02/27 06:57:42;;;;;;;6.05;6.05;;;2.80;99.90;;;;;;4181037;28;20087;-85
2023/02/27 07:00:03;;;;;;;7.43;7.18;;;2.80;99.90;;;;;;4191750;28;20116;-84
2023/02/27 07:02:24;;;;;;;7.28;7.18;;;2.80;99.90;;;;;;4190873;28;20079;-85
2023/02/27 07:04:45;;;;;;;6.45;6.40;;;2.80;99.90;;;;;;4203352;28;20083;-85
2023/02/27 07:07:29;;;;;;;6.00;5.90;;;2.80;99.90;;;;;;4180819;28;20068;-84
2023/02/27 07:09:55;;;;;;;5.57;5.57;;;2.90;99.90;;;;;;4158671;28;20068;-84
2023/02/27 07:12:15;;;;;;;7.50;7.30;;;2.90;99.90;;;;;;4152483;28;20073;-84
2023/02/27 07:14:35;;;;;;;6.75;6.65;;;3.00;99.90;;;;;;4142767;28;20405;-84
2023/02/27 07:16:56;;;;;;;5.93;5.90;;;3.00;99.90;;;;;;4154825;28;20292;-84
2023/02/27 07:19:17;;;;;;;6.13;6.03;;;2.90;99.90;;;;;;4153734;28;20118;-84
2023/02/27 07:21:38;;;;;;;5.90;5.78;;;2.90;99.90;;;;;;4154043;28;20117;-84
2023/02/27 07:23:58;;;;;;;7.93;7.82;;;3.00;99.90;;;;;;4162389;28;20048;-84
2023/02/27 07:26:21;;;;;;;8.35;8.15;;;3.00;99.90;;;;;;4152680;28;20085;-83
2023/02/27 07:28:41;;;;;;;7.45;7.18;;;3.10;99.90;;;;;;4163111;28;20065;-83
2023/02/27 07:31:02;;;;;;;6.40;6.35;;;3.10;99.90;;;;;;4163165;28;20060;-83
2023/02/27 07:33:22;;;;;;;9.93;9.73;;;3.10;99.90;;;;;;4164461;28;20061;-83
2023/02/27 07:35:44;;;;;;;6.00;5.90;;;3.10;99.90;;;;;;4160552;28;20091;-82
2023/02/27 07:38:04;;;;;;;6.00;5.95;;;3.10;99.90;;;;;;4155882;28;20045;-83
2023/02/27 07:40:24;;;;;;;5.68;5.57;;;3.20;99.90;;;;;;4153449;28;20091;-83
2023/02/27 07:42:48;;;;;;;5.78;5.78;;;3.20;99.90;;;;;;4149249;28;20061;-83
2023/02/27 07:45:08;;;;;;;3.85;3.85;;;3.20;99.90;;;;;;4141642;28;20339;-83
2023/02/27 07:47:29;;;;;;;6.25;6.25;;;3.30;99.90;;;;;;4184777;28;20104;-83
2023/02/27 07:49:49;;;;;;;5.63;5.63;;;3.30;99.90;;;;;;4184893;28;20233;-83
2023/02/27 07:52:10;;;;;;;5.30;5.30;;;3.30;99.90;;;;;;4177364;28;20269;-83
2023/02/27 07:54:30;;;;;;;5.35;5.35;;;3.40;99.90;;;;;;4180354;28;20317;-85
2023/02/27 07:56:51;;;;;;;5.35;5.35;;;3.40;99.90;;;;;;4190929;28;20048;-83
2023/02/27 07:59:13;;;;;;;6.53;6.40;;;3.40;99.90;;;;;;4196368;28;20071;-83
2023/02/27 08:01:35;;;;;;;7.03;6.93;;;3.40;99.90;;;;;;4196108;28;20055;-83
2023/02/27 08:03:55;;;;;;;7.28;7.18;;;3.40;99.90;;;;;;4188918;28;20042;-84
2023/02/27 08:06:15;;;;;;;5.50;5.50;;;3.50;99.90;;;;;;4186098;28;20052;-83
2023/02/27 08:08:35;;;;;;;6.22;6.13;;;3.60;99.90;;;;;;4193134;28;20151;-83
2023/02/27 08:10:57;;;;;;;5.70;5.70;;;3.70;99.90;;;;;;4186788;28;20087;-84
2023/02/27 08:13:17;;;;;;;5.10;5.10;;;3.70;99.90;;;;;;4197264;28;20056;-84
2023/02/27 08:15:50;;;;;;;5.25;5.25;;;3.60;99.90;;;;;;4190990;28;20128;-83
2023/02/27 08:18:10;;;;;;;6.40;6.30;;;3.50;99.90;;;;;;4200130;28;20090;-83
2023/02/27 08:20:30;;;;;;;6.25;6.15;;;3.60;99.90;;;;;;4200109;28;20047;-84
2023/02/27 08:22:50;;;;;;;5.55;5.55;;;3.60;99.90;;;;;;4192845;28;20050;-83
2023/02/27 08:25:11;;;;;;;6.43;6.32;;;3.50;99.90;;;;;;4194853;28;20108;-83
2023/02/27 08:27:32;;;;;;;5.88;5.68;;;3.60;99.90;;;;;;4189846;28;20063;-84
2023/02/27 08:29:52;;;;;;;7.03;6.80;;;3.60;99.90;;;;;;4181172;28;20087;-83
2023/02/27 08:32:15;;;;;;;7.28;7.18;;;3.70;99.90;;;;;;4191566;28;20048;-83
2023/02/27 08:34:35;;;;;;;6.50;6.40;;;3.70;99.90;;;;;;4182493;28;20090;-83
2023/02/27 08:36:56;;;;;;;5.75;5.65;;;3.70;99.90;;;;;;4197351;28;20301;-83
2023/02/27 08:39:17;;;;;;;6.80;6.60;;;3.80;99.90;;;;;;4197695;28;20331;-83
2023/02/27 08:41:38;;;;;;;5.22;5.13;;;3.80;99.90;;;;;;4179427;28;20096;-84
2023/02/27 08:43:58;;;;;;;5.05;4.95;;;3.70;99.90;;;;;;4196261;28;20052;-86
2023/02/27 08:46:18;;;;;;;6.72;6.63;;;3.80;99.90;;;;;;4188804;28;20056;-85
2023/02/27 08:49:21;;;;;;;5.13;5.07;;;3.80;99.90;;;;;;4187811;28;20039;-85
2023/02/27 08:51:45;;;;;;;6.10;5.68;;;3.90;99.90;;;;;;4194847;28;20109;-85
2023/02/27 08:54:05;;;;;;;5.22;5.22;;;3.60;99.90;;;;;;4193920;28;20044;-85
2023/02/27 08:56:27;;;;;;;5.88;5.88;;;3.80;99.90;;;;;;4188403;28;20055;-85
2023/02/27 08:58:48;;;;;;;7.10;7.00;;;3.90;99.90;;;;;;4196657;28;20048;-85
2023/02/27 09:01:08;;;;;;;5.22;5.03;;;3.80;99.90;;;;;;4189952;28;20052;-85
2023/02/27 09:03:28;;;;;;;4.90;4.90;;;3.80;99.90;;;;;;4194668;28;20052;-83
2023/02/27 09:05:50;;;;;;;6.40;6.30;;;3.70;99.90;;;;;;4187200;28;20057;-85
2023/02/27 09:08:10;;;;;;;6.10;6.00;;;3.90;99.90;;;;;;4188147;28;20048;-85
2023/02/27 09:10:31;;;;;;;6.50;6.40;;;4.10;99.90;;;;;;4197005;28;20083;-84
2023/02/27 09:12:51;;;;;;;5.22;5.22;;;4.20;99.90;;;;;;4189189;28;20086;-89
2023/02/27 09:15:11;;;;;;;4.72;4.72;;;4.10;99.90;;;;;;4198020;28;20052;-87
2023/02/27 09:17:31;;;;;;;6.43;6.32;;;4.10;99.90;;;;;;4193525;28;20106;-85
2023/02/27 09:19:51;;;;;;;6.75;6.65;;;4.20;99.90;;;;;;4202636;28;20107;-86
2023/02/27 09:22:12;;;;;;;5.20;5.15;;;4.00;99.90;;;;;;4189750;28;20051;-85
2023/02/27 09:24:32;;;;;;;5.30;5.30;;;4.10;99.90;;;;;;4189208;28;20112;-84
2023/02/27 09:26:53;;;;;;;7.65;7.55;;;4.20;99.90;;;;;;4191576;28;20421;-83
2023/02/27 09:29:13;;;;;;;7.00;6.90;;;4.30;99.90;;;;;;4198225;28;20051;-85
2023/02/27 09:31:33;;;;;;;6.63;6.53;;;4.40;99.90;;;;;;4189093;28;20088;-85
2023/02/27 09:33:56;;;;;;;5.20;5.20;;;4.40;99.90;;;;;;4183235;28;20084;-85
2023/02/27 09:36:17;;;;;;;5.47;5.47;;;4.20;99.90;;;;;;4182473;28;20099;-85
2023/02/27 09:38:37;;;;;;;6.90;6.80;;;4.30;99.90;;;;;;4192300;28;20360;-84
2023/02/27 09:41:01;;;;;;;8.25;8.15;;;4.20;99.90;;;;;;4180051;28;20051;-85
2023/02/27 09:43:35;;;;;;;11.10;10.63;;;4.20;99.90;;;;;;4186467;28;20079;-85
2023/02/27 09:45:57;;;;;;;7.65;7.55;;;4.30;99.90;;;;;;4201147;28;20059;-85
2023/02/27 09:48:50;;;;;;;7.60;7.50;;;4.40;99.90;;;;;;4189845;28;20466;-85
2023/02/27 09:51:34;;;;;;;6.53;6.43;;;4.40;99.90;;;;;;4190928;28;20060;-85
2023/02/27 09:54:00;;;;;;;6.15;5.95;;;4.40;99.90;;;;;;4163470;28;20515;-85
2023/02/27 09:56:25;;;;;;;7.10;7.00;;;4.50;99.90;;;;;;4135187;28;20045;-85
2023/02/27 09:59:12;;;;;;;5.55;5.55;;;4.60;99.90;;;;;;4154419;28;20084;-85
2023/02/27 10:01:42;;;;;;;4.93;4.93;;;4.70;99.90;;;;;;4153155;28;20080;-85
2023/02/27 10:04:44;;;;;;;4.80;4.80;;;4.70;99.90;;;;;;4154557;28;20092;-87
2023/02/27 10:07:31;;;;;;;5.03;4.93;;;4.70;99.90;;;;;;4156225;28;20149;-85
2023/02/27 10:09:57;;;;;;;4.70;4.70;;;4.70;99.90;;;;;;4138053;28;20111;-85
2023/02/27 10:12:36;;;;;;;4.35;4.35;;;4.70;99.90;;;;;;4158315;28;20150;-86
2023/02/27 10:15:01;;;;;;;5.18;5.18;;;4.70;99.90;;;;;;4140806;28;20057;-85
2023/02/27 10:17:50;;;;;;;5.72;5.63;;;4.70;99.90;;;;;;4162237;28;20069;-82
2023/02/27 10:20:22;;;;;;;4.53;4.53;;;4.80;99.90;;;;;;4158117;28;20048;-84
2023/02/27 10:22:46;;;;;;;5.38;5.28;;;4.70;99.90;;;;;;4160046;28;20080;-86
2023/02/27 10:25:12;;;;;;;4.30;4.30;;;4.70;99.90;;;;;;4158447;28;20350;-85
2023/02/27 10:27:54;;;;;;;4.38;4.38;;;4.70;99.90;;;;;;4162268;28;20080;-85
2023/02/27 10:30:23;;;;;;;4.50;4.50;;;4.80;99.90;;;;;;4156626;28;20056;-86
2023/02/27 10:33:16;;;;;;;4.30;4.30;;;4.80;99.90;;;;;;4189440;28;20282;-86
2023/02/27 10:35:40;;;;;;;4.68;4.68;;;4.90;99.90;;;;;;4192661;28;20055;-85
2023/02/27 10:38:10;;;;;;;5.38;5.28;;;4.90;99.90;;;;;;4188296;28;20044;-86
2023/02/27 10:40:30;;;;;;;4.07;4.07;;;4.90;99.90;;;;;;4187763;28;20047;-86
2023/02/27 10:42:51;;;;;;;4.35;4.35;;;5.00;99.90;;;;;;4189630;28;20048;-86
2023/02/27 10:45:14;;;;;;;6.15;6.05;;;5.00;99.90;;;;;;4190630;28;20043;-86
2023/02/27 10:47:34;;;;;;;4.80;4.80;;;5.10;99.90;;;;;;4183935;28;20296;-86
2023/02/27 10:49:54;;;;;;;9.85;9.75;;;5.10;99.90;;;;;;4193400;28;20052;-86
2023/02/27 10:52:16;;;;;;;5.50;5.50;;;5.20;99.90;;;;;;4188803;28;20063;-86
2023/02/27 10:54:37;;;;;;;4.97;4.97;;;5.10;99.90;;;;;;4184940;28;20047;-86
2023/02/27 10:57:01;;;;;;;5.22;5.22;;;5.10;99.90;;;;;;4192321;28;20052;-86
2023/02/27 10:59:28;;;;;;;4.28;4.28;;;5.10;99.90;;;;;;4191236;28;20358;-86
2023/02/27 11:01:56;;;;;;;4.20;4.20;;;5.10;99.90;;;;;;4195275;28;20048;-86
2023/02/27 11:04:32;;;;;;;4.65;4.65;;;5.00;99.90;;;;;;4187530;28;20151;-85
2023/02/27 11:06:55;;;;;;;4.90;4.90;;;4.90;99.90;;;;;;4193607;28;20051;-86
2023/02/27 11:09:21;;;;;;;4.85;4.85;;;4.90;99.90;;;;;;4189700;28;20067;-86
2023/02/27 11:11:42;;;;;;;5.07;5.07;;;4.90;99.90;;;;;;4181784;28;20256;-85
2023/02/27 11:14:36;;;;;;;4.25;4.25;;;5.00;99.90;;;;;;4196831;28;20047;-85
2023/02/27 11:16:58;;;;;;;5.70;5.70;;;5.00;99.90;;;;;;4146955;28;20233;-85
2023/02/27 11:19:25;;;;;;;6.27;6.07;;;5.00;99.90;;;;;;4152759;28;20088;-85
2023/02/27 11:22:06;;;;;;;4.57;4.57;;;5.10;99.90;;;;;;4146178;28;20372;-85
2023/02/27 11:24:27;;;;;;;4.78;4.78;;;5.20;99.90;;;;;;4135135;28;20040;-85
2023/02/27 11:26:56;;;;;;;5.40;5.30;;;5.20;99.90;;;;;;4161430;28;20149;-86
2023/02/27 11:29:19;;;;;;;4.45;4.35;;;5.20;99.90;;;;;;4150347;28;20069;-85
2023/02/27 11:31:46;;;;;;;7.95;7.63;;;5.20;99.90;;;;;;4158619;28;20145;-86
2023/02/27 11:34:07;;;;;;;11.73;10.70;;;5.20;99.90;;;;;;4150136;28;20074;-85
2023/02/27 11:36:47;;;;;;;7.40;7.20;;;5.30;99.90;;;;;;4151715;28;20060;-86
2023/02/27 11:39:19;;;;;;;9.48;8.98;;;5.30;99.90;;;;;;4161709;28;20065;-85
2023/02/27 11:41:43;;;;;;;4.95;4.85;;;5.20;99.90;;;;;;4149752;28;20048;-85
2023/02/27 11:44:04;;;;;;;4.05;4.05;;;5.20;99.90;;;;;;4152776;28;20036;-86
2023/02/27 11:46:25;;;;;;;4.07;4.07;;;5.20;99.90;;;;;;4156788;28;20063;-86
2023/02/27 11:49:38;;;;;;;5.40;5.40;;;5.20;99.90;;;;;;4158728;28;20081;-86
2023/02/27 11:52:12;;;;;;;4.20;4.18;;;5.30;99.90;;;;;;4155612;28;20107;-85
2023/02/27 11:54:49;;;;;;;3.92;3.92;;;5.40;99.90;;;;;;4200027;28;20108;-86
2023/02/27 11:57:39;;;;;;;4.15;4.15;;;5.50;99.90;;;;;;4191716;28;20232;-85
2023/02/27 12:00:16;;;;;;;5.55;5.32;;;5.60;99.90;;;;;;4184634;28;20047;-86
2023/02/27 12:02:50;;;;;;;3.80;3.80;;;5.70;99.90;;;;;;4188728;28;20090;-86
2023/02/27 12:05:37;;;;;;;4.60;4.60;;;5.80;99.90;;;;;;4185055;28;20071;-86
2023/02/27 12:08:16;;;;;;;4.55;4.55;;;5.90;99.90;;;;;;4189772;28;20348;-86
2023/02/27 12:10:47;;;;;;;3.47;3.47;;;5.70;99.90;;;;;;4197457;28;20147;-86
2023/02/27 12:13:18;;;;;;;4.15;4.15;;;5.80;99.90;;;;;;4208329;28;20055;-85
2023/02/27 12:15:55;;;;;;;3.92;3.92;;;5.90;99.90;;;;;;4203530;28;20382;-85
2023/02/27 12:18:27;;;;;;;4.80;4.75;;;6.00;99.90;;;;;;4184295;28;20136;-85
2023/02/27 12:21:14;;;;;;;4.63;4.63;;;6.00;99.90;;;;;;4193015;28;20148;-84
2023/02/27 12:23:45;;;;;;;3.92;3.92;;;6.00;99.90;;;;;;4194496;28;20102;-85
2023/02/27 12:26:16;;;;;;;4.50;4.50;;;5.80;99.90;;;;;;4193551;28;20138;-84
2023/02/27 12:28:53;;;;;;;5.80;5.70;;;5.70;99.90;;;;;;4188372;28;20045;-85
2023/02/27 12:31:39;;;;;;;3.38;3.38;;;5.70;99.90;;;;;;4180003;28;20052;-85
2023/02/27 12:34:14;;;;;;;3.58;3.58;;;5.70;99.90;;;;;;4190229;28;20061;-84
2023/02/27 12:36:34;;;;;;;3.95;3.95;;;5.80;99.90;;;;;;4192095;28;20044;-85
2023/02/27 12:38:55;;;;;;;3.17;3.17;;;5.70;99.90;;;;;;4197059;28;20067;-85
2023/02/27 12:41:32;;;;;;;3.78;3.67;;;5.70;99.90;;;;;;4191543;28;20370;-83
2023/02/27 12:44:23;;;;;;;3.92;3.92;;;5.90;99.90;;;;;;4192703;28;20068;-84
2023/02/27 12:47:21;;;;;;;3.00;3.00;;;6.10;99.90;;;;;;4188478;28;20044;-83
2023/02/27 12:49:57;;;;;;;4.68;4.68;;;6.00;99.90;;;;;;4198027;28;20441;-84
2023/02/27 12:52:34;;;;;;;5.10;5.10;;;5.90;99.90;;;;;;4194023;28;20082;-83
2023/02/27 12:55:12;;;;;;;7.53;7.43;;;5.80;99.90;;;;;;4193400;28;20248;-83
2023/02/27 12:58:06;;;;;;;5.93;5.82;;;5.80;99.90;;;;;;4196604;28;20131;-83
2023/02/27 13:00:44;;;;;;;4.82;4.82;;;5.70;99.90;;;;;;4197898;28;20052;-83